Time;durP1;ratioP1;P1;durP2;ratioP2;P2;SDS_P1;SDS_P2;PMS_P1;PMS_P2;Temp;Humidity;BMP_temperature;BMP_pressure;BME280_temperature;BME280_humidity;BME280_pressure;Samples;Min_cycle;Max_cycle;Signal;HPM_P1;HPM_P2
2021/06/08 00:01:07;;;;;;;8.40;6.45;;;;;;;17.16;54.04;100605.13;124833;1092;103264;-79
2021/06/08 00:03:34;;;;;;;13.65;6.68;;;;;;;17.16;54.18;100609.64;124914;1091;103121;-77
2021/06/08 00:06:02;;;;;;;9.83;7.17;;;;;;;17.10;54.27;100604.56;124790;1091;115760;-79
2021/06/08 00:08:29;;;;;;;9.80;7.67;;;;;;;17.03;54.19;100604.00;125054;1093;102997;-78
2021/06/08 00:10:57;;;;;;;8.00;6.67;;;;;;;16.96;54.22;100592.67;124889;1093;115570;-79
2021/06/08 00:13:24;;;;;;;7.83;6.98;;;;;;;16.93;54.59;100594.64;124957;1093;103121;-78
2021/06/08 00:15:51;;;;;;;6.80;6.08;;;;;;;16.93;54.63;100611.67;124845;1093;115700;-78
2021/06/08 00:18:19;;;;;;;11.27;8.10;;;;;;;16.91;54.94;100597.41;124899;1092;103008;-79
2021/06/08 00:20:46;;;;;;;7.93;6.33;;;;;;;16.81;54.26;100599.66;124910;1092;103120;-79
2021/06/08 00:23:14;;;;;;;7.50;6.77;;;;;;;16.81;54.51;100596.97;124610;1093;114460;-79
2021/06/08 00:25:41;;;;;;;8.88;6.15;;;;;;;16.85;54.69;100589.63;125000;1092;103007;-79
2021/06/08 00:28:09;;;;;;;10.50;6.90;;;;;;;16.77;54.80;100598.07;124901;1092;115843;-78
2021/06/08 00:30:37;;;;;;;7.38;6.58;;;;;;;16.71;55.34;100598.36;124973;1091;103020;-78
2021/06/08 00:33:05;;;;;;;8.60;7.05;;;;;;;16.66;55.34;100587.84;124901;1091;102986;-79
2021/06/08 00:35:33;;;;;;;7.63;6.90;;;;;;;16.63;55.28;100592.48;124876;1091;115698;-78
2021/06/08 00:38:15;;;;;;;9.65;6.95;;;;;;;16.60;55.59;100593.50;124587;1095;103696;-78
2021/06/08 00:40:43;;;;;;;6.75;6.08;;;;;;;16.58;55.96;100589.14;124505;1096;114481;-79
2021/06/08 00:43:25;;;;;;;7.13;6.20;;;;;;;16.51;56.00;100591.26;124490;1096;103054;-78
2021/06/08 00:45:54;;;;;;;8.15;6.88;;;;;;;16.53;55.82;100590.24;124313;1094;114847;-79
2021/06/08 00:48:22;;;;;;;7.33;6.63;;;;;;;16.51;55.62;100584.09;124562;1095;103111;-78
2021/06/08 00:50:50;;;;;;;10.40;7.38;;;;;;;16.42;56.52;100584.52;124159;1096;103071;-78
2021/06/08 00:53:17;;;;;;;7.95;7.08;;;;;;;16.31;56.60;100579.63;124309;1095;115834;-78
2021/06/08 00:55:45;;;;;;;7.80;6.33;;;;;;;16.32;56.38;100583.21;124528;1095;103084;-79
2021/06/08 00:58:13;;;;;;;11.70;7.95;;;;;;;16.38;56.03;100585.59;124545;1096;115499;-79
2021/06/08 01:00:40;;;;;;;8.00;7.10;;;;;;;16.35;56.96;100580.37;124605;1095;103201;-78
2021/06/08 01:03:08;;;;;;;9.13;7.73;;;;;;;16.28;56.77;100576.23;124573;1095;103180;-79
2021/06/08 01:05:36;;;;;;;8.67;7.20;;;;;;;16.29;57.13;100577.99;124540;1097;116136;-79
2021/06/08 01:08:04;;;;;;;8.18;7.38;;;;;;;16.24;57.48;100569.27;124714;1096;103334;-79
2021/06/08 01:10:32;;;;;;;8.78;7.40;;;;;;;16.18;57.20;100575.78;124622;1095;114861;-81
2021/06/08 01:13:00;;;;;;;8.00;7.18;;;;;;;16.20;57.18;100573.91;124569;1095;103166;-80
2021/06/08 01:15:27;;;;;;;8.83;7.87;;;;;;;16.19;57.53;100580.22;124498;1094;103540;-78
2021/06/08 01:17:55;;;;;;;7.53;6.83;;;;;;;16.05;57.89;100575.50;124650;1093;115601;-79
2021/06/08 01:20:23;;;;;;;7.73;6.87;;;;;;;16.09;57.53;100576.20;124891;1093;103713;-77
2021/06/08 01:22:50;;;;;;;8.27;7.47;;;;;;;16.12;57.83;100576.09;124623;1093;115786;-80
2021/06/08 01:25:18;;;;;;;11.95;7.98;;;;;;;16.00;58.09;100572.16;124748;1092;103009;-79
2021/06/08 01:27:46;;;;;;;9.07;7.17;;;;;;;15.98;57.73;100582.08;124657;1093;116145;-79
2021/06/08 01:30:15;;;;;;;7.28;6.43;;;;;;;16.00;58.32;100570.33;124279;1093;103092;-78
2021/06/08 01:32:43;;;;;;;9.28;7.00;;;;;;;15.97;57.78;100581.22;124495;1092;103133;-79
2021/06/08 01:35:11;;;;;;;8.10;7.30;;;;;;;15.89;58.25;100583.39;125084;1093;115652;-77
2021/06/08 01:37:41;;;;;;;10.23;8.03;;;;;;;15.88;57.92;100582.50;124849;1091;103217;-79
2021/06/08 01:40:09;;;;;;;11.58;8.03;;;;;;;15.96;57.70;100579.47;124794;1092;116307;-78
2021/06/08 01:42:50;;;;;;;10.10;8.58;;;;;;;15.96;57.77;100573.24;124848;1093;103010;-79
2021/06/08 01:45:17;;;;;;;8.53;7.67;;;;;;;15.94;58.25;100577.80;125084;1092;102980;-79
2021/06/08 01:47:45;;;;;;;11.27;8.07;;;;;;;15.87;58.78;100574.52;124671;1093;114862;-78
2021/06/08 01:50:14;;;;;;;9.87;8.63;;;;;;;15.83;58.31;100581.87;124888;1093;103090;-78
2021/06/08 01:52:47;;;;;;;10.03;7.10;;;;;;;15.81;58.65;100581.05;124758;1091;116545;-78
2021/06/08 01:55:21;;;;;;;9.40;7.00;;;;;;;15.82;58.80;100587.28;124766;1093;103179;-78
2021/06/08 01:58:22;;;;;;;8.83;8.00;;;;;;;15.78;59.14;100583.85;127822;1093;115737;-78
2021/06/08 02:01:10;;;;;;;9.28;8.03;;;;;;;15.76;58.38;100574.13;127953;1093;101138;-78
2021/06/08 02:03:39;;;;;;;8.78;7.90;;;;;;;15.83;58.45;100578.30;127711;1093;101797;-78
2021/06/08 02:06:21;;;;;;;9.53;8.23;;;;;;;15.84;58.30;100585.41;125521;1093;115665;-79
2021/06/08 02:09:03;;;;;;;8.77;7.83;;;;;;;15.79;59.19;100584.71;127825;1093;101001;-78
2021/06/08 02:11:46;;;;;;;10.67;8.63;;;;;;;15.79;58.92;100584.71;126895;1093;115170;-79
2021/06/08 02:14:30;;;;;;;10.78;8.45;;;;;;;15.79;59.00;100587.39;124461;1092;103672;-77
2021/06/08 02:17:02;;;;;;;11.53;8.00;;;;;;;15.80;58.86;100592.73;127845;1093;115627;-78
2021/06/08 02:19:30;;;;;;;11.13;9.05;;;;;;;15.79;58.93;100590.08;126667;1092;103505;-79
2021/06/08 02:22:02;;;;;;;12.23;9.33;;;;;;;15.81;59.07;100590.94;124955;1093;114719;-80
2021/06/08 02:24:31;;;;;;;13.97;9.73;;;;;;;15.72;59.14;100595.72;124662;1093;102998;-82
2021/06/08 02:27:18;;;;;;;9.00;8.03;;;;;;;15.72;59.23;100594.86;124911;1093;103655;-79
2021/06/08 02:29:47;;;;;;;13.80;9.87;;;;;;;15.69;59.37;100598.55;124700;1092;114359;-79
2021/06/08 02:32:16;;;;;;;11.17;9.57;;;;;;;15.72;59.01;100598.41;124815;1093;103114;-80
2021/06/08 02:34:44;;;;;;;11.73;9.20;;;;;;;15.74;58.82;100600.16;124630;1093;116823;-80
2021/06/08 02:37:13;;;;;;;12.70;9.90;;;;;;;15.71;59.55;100601.16;124668;1093;102988;-79
2021/06/08 02:39:42;;;;;;;12.53;8.70;;;;;;;15.71;59.23;100607.42;124926;1093;103470;-78
2021/06/08 02:42:11;;;;;;;12.80;8.93;;;;;;;15.71;59.67;100599.37;124678;1093;116724;-77
2021/06/08 02:44:40;;;;;;;14.60;10.58;;;;;;;15.71;59.49;100599.37;124651;1092;103634;-77
2021/06/08 02:47:08;;;;;;;12.05;8.70;;;;;;;15.76;59.01;100600.97;124501;1092;116079;-79
2021/06/08 02:49:37;;;;;;;11.00;8.73;;;;;;;15.74;58.55;100608.21;124903;1093;103025;-79
2021/06/08 02:52:05;;;;;;;14.08;9.33;;;;;;;15.72;59.43;100600.23;124765;1092;114706;-79
2021/06/08 02:54:33;;;;;;;13.10;9.33;;;;;;;15.72;59.37;100602.91;124724;1092;103234;-78
2021/06/08 02:57:02;;;;;;;11.70;8.88;;;;;;;15.76;59.38;100599.15;124930;1093;103070;-79
2021/06/08 02:59:33;;;;;;;10.78;9.73;;;;;;;15.81;58.55;100610.59;124521;1092;114459;-78
2021/06/08 03:02:03;;;;;;;11.00;9.20;;;;;;;15.87;59.01;100613.02;124904;1092;103092;-79
2021/06/08 03:04:46;;;;;;;12.58;9.73;;;;;;;15.92;58.52;100615.48;124565;1093;114832;-81
2021/06/08 03:07:27;;;;;;;11.97;8.83;;;;;;;15.94;58.90;100618.98;124677;1091;102994;-78
2021/06/08 03:10:02;;;;;;;13.33;10.15;;;;;;;15.97;58.93;100615.28;124770;1093;116307;-78
2021/06/08 03:12:32;;;;;;;17.48;10.90;;;;;;;15.97;58.43;100620.66;124991;1093;103079;-79
2021/06/08 03:15:02;;;;;;;13.90;10.45;;;;;;;15.94;58.29;100631.52;124965;1093;102978;-78
2021/06/08 03:17:31;;;;;;;12.30;9.27;;;;;;;15.91;58.43;100627.16;124909;1093;115341;-79
2021/06/08 03:20:09;;;;;;;14.33;10.93;;;;;;;15.96;58.25;100633.20;124497;1093;103049;-79
2021/06/08 03:22:36;;;;;;;10.63;9.23;;;;;;;16.04;58.03;100636.41;124303;1093;116108;-79
2021/06/08 03:25:04;;;;;;;11.03;9.87;;;;;;;16.14;57.58;100633.30;124971;1093;103063;-78
2021/06/08 03:27:32;;;;;;;12.23;10.75;;;;;;;16.19;57.80;100632.17;125279;1093;102996;-78
2021/06/08 03:30:00;;;;;;;12.55;9.90;;;;;;;16.25;57.49;100627.42;125007;1093;114948;-78
2021/06/08 03:32:28;;;;;;;12.10;10.00;;;;;;;16.31;57.20;100633.39;124983;1092;103017;-80
2021/06/08 03:34:55;;;;;;;15.20;9.77;;;;;;;16.35;56.94;100632.33;124704;1093;118291;-79
2021/06/08 03:37:25;;;;;;;14.60;9.23;;;;;;;16.38;56.95;100633.97;125031;1092;103155;-79
2021/06/08 03:39:53;;;;;;;14.00;9.83;;;;;;;16.44;56.84;100636.38;124887;1092;116022;-79
2021/06/08 03:42:21;;;;;;;16.45;9.13;;;;;;;16.48;56.66;100639.81;124828;1093;103223;-78
2021/06/08 03:44:49;;;;;;;13.83;9.30;;;;;;;16.49;56.54;100634.36;124937;1092;101756;-79
2021/06/08 03:47:19;;;;;;;16.18;9.43;;;;;;;16.53;56.39;100638.64;124893;1092;114438;-80
2021/06/08 03:49:47;;;;;;;15.80;10.17;;;;;;;16.55;56.76;100636.77;124951;1092;103103;-80
2021/06/08 03:52:17;;;;;;;16.33;9.57;;;;;;;16.59;56.35;100637.47;124753;1092;116366;-79
2021/06/08 03:54:45;;;;;;;13.90;10.50;;;;;;;16.68;56.19;100638.86;124869;1093;102981;-79
2021/06/08 03:57:13;;;;;;;14.00;10.90;;;;;;;16.74;56.38;100641.27;124793;1093;103164;-78
2021/06/08 03:59:40;;;;;;;16.38;10.48;;;;;;;16.76;56.71;100638.50;124674;1093;116603;-78
2021/06/08 04:02:08;;;;;;;17.60;10.35;;;;;;;16.79;56.55;100647.27;124862;1092;103674;-79
2021/06/08 04:04:35;;;;;;;19.30;10.60;;;;;;;16.83;56.35;100639.92;124644;1093;116446;-79
2021/06/08 04:07:04;;;;;;;13.70;9.25;;;;;;;16.87;56.48;100638.83;124829;1092;103093;-80
2021/06/08 04:09:31;;;;;;;14.37;9.70;;;;;;;16.89;56.17;100634.26;124802;1092;103335;-79
2021/06/08 04:11:59;;;;;;;12.93;9.45;;;;;;;16.92;56.26;100638.66;124797;1093;115783;-79
2021/06/08 04:14:26;;;;;;;18.73;9.83;;;;;;;16.97;56.04;100629.40;124849;1093;103036;-78
2021/06/08 04:16:54;;;;;;;14.27;10.63;;;;;;;16.96;56.18;100637.55;124880;1093;115862;-79
2021/06/08 04:19:21;;;;;;;18.77;11.27;;;;;;;17.00;56.17;100644.52;124997;1093;103500;-80
2021/06/08 04:21:51;;;;;;;21.77;10.20;;;;;;;17.02;56.36;100646.19;124732;1092;116675;-78
2021/06/08 04:24:19;;;;;;;19.90;9.93;;;;;;;17.12;56.56;100637.66;125251;1092;102981;-78
2021/06/08 04:27:00;;;;;;;15.20;9.48;;;;;;;17.15;56.34;100643.78;124706;1093;103151;-78
2021/06/08 04:29:28;;;;;;;14.70;8.97;;;;;;;17.24;56.32;100647.81;124535;1093;115855;-79
2021/06/08 04:31:56;;;;;;;13.75;9.90;;;;;;;17.33;56.32;100647.34;124783;1093;103610;-78
2021/06/08 04:34:23;;;;;;;15.37;9.43;;;;;;;17.41;56.34;100646.96;124627;1093;116187;-80
2021/06/08 04:36:50;;;;;;;14.30;9.95;;;;;;;17.48;56.21;100647.52;124828;1093;103000;-79
2021/06/08 04:39:18;;;;;;;18.30;9.88;;;;;;;17.51;56.34;100641.97;124561;1092;102892;-77
2021/06/08 04:41:46;;;;;;;15.28;9.80;;;;;;;17.55;55.95;100643.55;124284;1092;114620;-78
2021/06/08 04:44:20;;;;;;;18.23;9.67;;;;;;;17.64;56.35;100644.91;124643;1091;103128;-80
2021/06/08 04:46:48;;;;;;;17.05;9.80;;;;;;;17.68;56.62;100636.56;124515;1093;116380;-78
2021/06/08 04:49:16;;;;;;;12.60;9.15;;;;;;;17.75;56.70;100634.42;124765;1091;103354;-79
2021/06/08 04:51:43;;;;;;;15.53;9.55;;;;;;;17.81;56.67;100631.42;124693;1093;103074;-78
2021/06/08 04:54:11;;;;;;;15.27;10.67;;;;;;;17.85;56.20;100638.38;124644;1093;114204;-78
2021/06/08 04:56:38;;;;;;;14.57;8.20;;;;;;;17.96;56.72;100634.28;124913;1092;103080;-81
2021/06/08 04:59:06;;;;;;;16.70;9.13;;;;;;;18.01;56.83;100638.47;124990;1093;116447;-78
2021/06/08 05:01:36;;;;;;;19.33;9.23;;;;;;;18.09;56.47;100640.76;124646;1093;102991;-79
2021/06/08 05:04:10;;;;;;;22.93;9.93;;;;;;;18.17;56.35;100632.27;124926;1093;115271;-79
2021/06/08 05:06:42;;;;;;;16.00;8.70;;;;;;;18.25;56.55;100635.41;124822;1093;103116;-79
2021/06/08 05:09:18;;;;;;;17.60;9.23;;;;;;;18.30;56.04;100630.64;124991;1091;102933;-79
2021/06/08 05:11:50;;;;;;;21.68;8.95;;;;;;;18.38;56.08;100636.47;124475;1093;115017;-79
2021/06/08 05:14:18;;;;;;;22.35;8.63;;;;;;;18.45;56.09;100638.84;124407;1093;103227;-79
2021/06/08 05:16:47;;;;;;;15.85;9.00;;;;;;;18.50;56.21;100636.73;124339;1093;115854;-81
2021/06/08 05:19:29;;;;;;;20.87;9.73;;;;;;;18.58;56.09;100637.20;124765;1093;103037;-78
2021/06/08 05:21:57;;;;;;;19.20;9.67;;;;;;;18.63;56.24;100634.23;124750;1093;116063;-80
2021/06/08 05:24:25;;;;;;;28.17;10.97;;;;;;;18.69;56.10;100634.75;124904;1093;102954;-79
2021/06/08 05:26:53;;;;;;;19.10;9.70;;;;;;;18.78;56.52;100632.48;124862;1091;103474;-77
2021/06/08 05:29:24;;;;;;;19.13;9.63;;;;;;;18.88;56.39;100639.99;124669;1093;115175;-79
2021/06/08 05:31:56;;;;;;;19.23;8.63;;;;;;;18.97;56.61;100635.91;124886;1093;103074;-79
2021/06/08 05:34:25;;;;;;;11.10;8.15;;;;;;;19.06;55.99;100634.52;124834;1092;116626;-77
2021/06/08 05:36:54;;;;;;;18.40;8.63;;;;;;;19.15;56.17;100635.79;125426;1093;103533;-78
2021/06/08 05:39:21;;;;;;;13.10;7.70;;;;;;;19.23;56.47;100633.50;124818;1092;102994;-79
2021/06/08 05:41:49;;;;;;;11.20;7.20;;;;;;;19.30;55.51;100640.30;124442;1093;115843;-79
2021/06/08 05:44:17;;;;;;;11.88;7.50;;;;;;;19.35;55.66;100632.80;124676;1091;103239;-78
2021/06/08 05:46:48;;;;;;;12.73;7.67;;;;;;;19.41;55.32;100630.66;124566;1092;115728;-78
2021/06/08 05:49:16;;;;;;;12.10;7.80;;;;;;;19.47;55.28;100633.02;124652;1093;103098;-78
2021/06/08 05:51:44;;;;;;;13.98;8.25;;;;;;;19.55;55.33;100628.91;124782;1093;102998;-78
2021/06/08 05:54:12;;;;;;;19.90;9.80;;;;;;;19.61;55.66;100632.20;124620;1093;114381;-79
2021/06/08 05:56:39;;;;;;;15.50;9.20;;;;;;;19.69;54.65;100622.65;124599;1093;103083;-79
2021/06/08 05:59:07;;;;;;;14.67;7.83;;;;;;;19.80;55.27;100629.23;124633;1093;115853;-81
2021/06/08 06:01:38;;;;;;;16.73;7.63;;;;;;;19.90;55.44;100629.56;124427;1093;103982;-76
2021/06/08 06:04:06;;;;;;;14.88;8.70;;;;;;;19.98;55.12;100630.84;124485;1093;116042;-79
2021/06/08 06:06:34;;;;;;;14.83;8.97;;;;;;;20.05;54.86;100637.59;124445;1093;103325;-77
2021/06/08 06:09:02;;;;;;;16.20;8.53;;;;;;;20.11;54.71;100630.92;124200;1093;103151;-79
2021/06/08 06:11:30;;;;;;;13.17;8.23;;;;;;;20.16;54.12;100626.09;124355;1092;115789;-79
2021/06/08 06:14:02;;;;;;;13.83;8.30;;;;;;;20.21;54.23;100632.09;124642;1093;103138;-79
2021/06/08 06:16:45;;;;;;;15.93;7.63;;;;;;;20.27;54.57;100632.67;124481;1093;115185;-78
2021/06/08 06:19:13;;;;;;;10.30;7.75;;;;;;;20.32;54.32;100634.11;125385;1093;102953;-79
2021/06/08 06:21:41;;;;;;;14.27;8.97;;;;;;;20.39;54.27;100621.06;124643;1093;103156;-79
2021/06/08 06:24:12;;;;;;;8.93;7.40;;;;;;;20.47;54.19;100620.58;124687;1092;116458;-79
2021/06/08 06:26:43;;;;;;;10.97;7.50;;;;;;;20.56;54.40;100619.98;125031;1093;103150;-78
2021/06/08 06:29:13;;;;;;;11.73;7.73;;;;;;;20.63;54.02;100621.34;124799;1093;115855;-81
2021/06/08 06:31:56;;;;;;;11.73;7.67;;;;;;;20.68;53.81;100624.59;124492;1095;103043;-78
2021/06/08 06:34:24;;;;;;;16.10;8.73;;;;;;;20.78;53.94;100622.20;124751;1095;116132;-81
2021/06/08 06:36:56;;;;;;;9.83;8.50;;;;;;;20.87;53.76;100621.59;123835;1097;103179;-79
2021/06/08 06:39:26;;;;;;;13.27;8.53;;;;;;;20.93;53.60;100624.87;124290;1096;103057;-78
2021/06/08 06:41:57;;;;;;;13.55;8.30;;;;;;;20.98;53.12;100622.70;124516;1096;116029;-78
2021/06/08 06:44:25;;;;;;;11.33;7.65;;;;;;;21.05;53.28;100624.90;125001;1096;103038;-79
2021/06/08 06:46:53;;;;;;;9.60;7.53;;;;;;;21.13;53.12;100623.54;124236;1096;115258;-79
2021/06/08 06:49:23;;;;;;;11.53;7.35;;;;;;;21.25;53.46;100619.14;124682;1096;103432;-80
2021/06/08 06:52:05;;;;;;;11.68;8.40;;;;;;;21.33;53.26;100623.05;124327;1095;114977;-80
2021/06/08 06:54:33;;;;;;;8.20;6.25;;;;;;;21.42;53.23;100624.27;124146;1095;103258;-79
2021/06/08 06:57:01;;;;;;;8.27;6.10;;;;;;;21.49;53.39;100619.30;124181;1096;103073;-79
2021/06/08 06:59:29;;;;;;;9.53;6.53;;;;;;;21.58;52.33;100618.70;124485;1095;117355;-82
2021/06/08 07:01:58;;;;;;;10.50;6.47;;;;;;;21.67;52.24;100618.06;124532;1095;103185;-81
2021/06/08 07:04:27;;;;;;;10.03;6.83;;;;;;;21.77;52.29;100623.70;124426;1095;116413;-81
2021/06/08 07:06:55;;;;;;;8.53;6.38;;;;;;;21.85;52.55;100615.03;125091;1096;103339;-79
2021/06/08 07:09:24;;;;;;;8.53;5.88;;;;;;;21.93;52.21;100620.78;124543;1093;104141;-81
2021/06/08 07:11:53;;;;;;;6.70;4.93;;;;;;;22.03;51.59;100610.13;124772;1092;115837;-80
2021/06/08 07:14:21;;;;;;;8.60;6.13;;;;;;;22.11;51.59;100615.91;126674;1092;103079;-84
2021/06/08 07:16:53;;;;;;;10.55;6.25;;;;;;;22.18;51.51;100611.76;124535;1093;114524;-78
2021/06/08 07:19:24;;;;;;;6.80;6.10;;;;;;;22.29;50.88;100610.98;124828;1093;103186;-82
2021/06/08 07:22:07;;;;;;;9.00;6.27;;;;;;;22.37;50.55;100613.17;124931;1092;116107;-79
2021/06/08 07:24:48;;;;;;;8.30;6.30;;;;;;;22.48;50.10;100615.95;124834;1093;103490;-79
2021/06/08 07:27:29;;;;;;;8.55;6.05;;;;;;;22.60;50.62;100625.05;124634;1096;103017;-80
2021/06/08 07:29:57;;;;;;;9.00;5.73;;;;;;;22.63;50.25;100613.11;124565;1095;115493;-81
2021/06/08 07:33:15;;;;;;;8.33;6.83;;;;;;;22.77;50.58;100626.53;124655;1092;103145;-79
2021/06/08 07:36:03;;;;;;;7.03;5.53;;;;;;;22.85;49.81;100626.83;125229;1093;115464;-80
2021/06/08 07:38:57;;;;;;;8.00;6.40;;;;;;;22.95;49.03;100623.42;125299;1092;103869;-84
2021/06/08 07:41:36;;;;;;;8.80;5.80;;;;;;;23.04;48.49;100628.16;125307;1092;117794;-80
2021/06/08 07:44:06;;;;;;;17.65;6.00;;;;;;;23.12;48.61;100633.02;125442;1092;103170;-80
2021/06/08 07:46:37;;;;;;;7.98;5.60;;;;;;;23.21;48.47;100622.34;124564;1093;115206;-80
2021/06/08 07:49:05;;;;;;;10.37;6.00;;;;;;;23.31;48.23;100630.69;125322;1093;103172;-81
2021/06/08 07:51:34;;;;;;;8.05;5.83;;;;;;;23.35;47.83;100625.86;125355;1092;103134;-80
2021/06/08 07:54:15;;;;;;;13.87;10.60;;;;;;;23.43;48.41;100626.16;125473;1093;113953;-80
2021/06/08 07:56:44;;;;;;;9.13;5.50;;;;;;;23.48;48.29;100629.36;125599;1093;103856;-80
2021/06/08 07:59:13;;;;;;;5.83;5.23;;;;;;;23.57;48.15;100632.38;124973;1093;116249;-81
2021/06/08 08:01:44;;;;;;;6.05;5.13;;;;;;;23.65;47.99;100628.06;124899;1093;103030;-79
2021/06/08 08:04:20;;;;;;;10.65;5.20;;;;;;;23.73;48.30;100629.34;124959;1093;116114;-84
2021/06/08 08:06:49;;;;;;;6.95;5.70;;;;;;;23.85;46.93;100625.64;125912;1093;103260;-80
2021/06/08 08:09:33;;;;;;;8.35;5.50;;;;;;;23.93;47.41;100625.94;125283;1093;103164;-85
2021/06/08 08:12:02;;;;;;;8.47;5.23;;;;;;;24.04;47.24;100630.52;125164;1093;114370;-80
2021/06/08 08:14:30;;;;;;;7.53;5.33;;;;;;;24.15;47.41;100625.10;125243;1093;102958;-81
2021/06/08 08:16:57;;;;;;;5.70;5.05;;;;;;;24.23;46.06;100627.18;124698;1093;115342;-80
2021/06/08 08:19:25;;;;;;;6.33;5.00;;;;;;;24.32;46.00;100625.59;124211;1093;103301;-80
2021/06/08 08:21:53;;;;;;;5.80;5.10;;;;;;;24.40;46.03;100624.97;126621;1093;115351;-81
2021/06/08 08:24:20;;;;;;;5.50;4.98;;;;;;;24.48;45.86;100620.61;127809;1092;101292;-79
2021/06/08 08:26:48;;;;;;;6.15;4.75;;;;;;;24.58;45.21;100626.20;126551;1093;103751;-81
2021/06/08 08:29:15;;;;;;;5.27;4.20;;;;;;;24.68;44.72;100627.18;125257;1093;115621;-81
2021/06/08 08:31:44;;;;;;;5.90;4.73;;;;;;;24.79;44.63;100629.05;125116;1093;103493;-79
2021/06/08 08:34:12;;;;;;;4.90;4.47;;;;;;;24.91;44.62;100624.44;125083;1093;116130;-80
2021/06/08 08:36:53;;;;;;;8.95;4.70;;;;;;;25.03;44.12;100627.97;124595;1093;103099;-77
2021/06/08 08:39:20;;;;;;;6.77;4.43;;;;;;;25.13;43.84;100619.91;124952;1093;102994;-81
2021/06/08 08:41:48;;;;;;;4.63;4.00;;;;;;;25.31;43.66;100625.64;124872;1093;114884;-80
2021/06/08 08:44:16;;;;;;;5.13;4.67;;;;;;;25.46;44.16;100627.09;125393;1092;103119;-82
2021/06/08 08:46:44;;;;;;;5.50;4.40;;;;;;;25.62;43.58;100625.76;124874;1092;114637;-83
2021/06/08 08:49:11;;;;;;;4.60;3.70;;;;;;;25.80;43.65;100621.44;125288;1093;102994;-79
2021/06/08 08:51:42;;;;;;;8.35;4.43;;;;;;;25.94;41.82;100616.63;125416;1093;102980;-79
2021/06/08 08:54:12;;;;;;;6.93;4.48;;;;;;;26.17;42.22;100609.19;124566;1093;114523;-81
2021/06/08 08:56:41;;;;;;;6.33;4.95;;;;;;;26.37;42.06;100608.25;125347;1093;103101;-78
2021/06/08 08:59:11;;;;;;;6.25;4.13;;;;;;;26.46;41.22;100619.38;124994;1092;116078;-81
2021/06/08 09:01:41;;;;;;;6.68;4.55;;;;;;;26.32;41.44;100615.13;124999;1091;102903;-81
2021/06/08 09:04:09;;;;;;;7.27;4.20;;;;;;;26.48;41.10;100615.47;124984;1092;115301;-79
2021/06/08 09:06:37;;;;;;;7.20;4.53;;;;;;;26.61;40.08;100612.50;124866;1093;103005;-76
2021/06/08 09:09:16;;;;;;;5.58;3.25;;;;;;;26.62;40.39;100618.84;125022;1093;103093;-80
2021/06/08 09:11:48;;;;;;;4.75;3.70;;;;;;;26.75;39.29;100607.67;124991;1092;114758;-79
2021/06/08 09:14:16;;;;;;;6.83;3.80;;;;;;;26.68;38.91;100608.22;124760;1092;103150;-79
2021/06/08 09:16:43;;;;;;;9.07;4.00;;;;;;;26.66;40.22;100617.56;124582;1093;115597;-81
2021/06/08 09:19:12;;;;;;;8.90;4.03;;;;;;;26.62;39.63;100607.92;124671;1092;103434;-77
2021/06/08 09:21:43;;;;;;;6.15;4.08;;;;;;;26.91;39.50;100598.92;124802;1093;102990;-79
2021/06/08 09:24:26;;;;;;;7.60;3.87;;;;;;;27.01;39.72;100600.66;124707;1093;114132;-81
2021/06/08 09:27:02;;;;;;;8.33;3.80;;;;;;;27.19;38.80;100609.03;125171;1093;103181;-81
2021/06/08 09:29:31;;;;;;;8.13;4.40;;;;;;;27.06;39.68;100605.72;125187;1093;115682;-78
2021/06/08 09:32:19;;;;;;;5.55;4.08;;;;;;;26.91;39.20;100599.81;124597;1093;102957;-80
2021/06/08 09:35:02;;;;;;;6.53;3.73;;;;;;;26.82;39.71;100603.39;124768;1092;116155;-80
2021/06/08 09:37:34;;;;;;;10.53;5.60;;;;;;;26.80;38.91;100597.19;124786;1093;102967;-79
2021/06/08 09:40:23;;;;;;;7.30;4.97;;;;;;;27.80;37.41;100597.91;124594;1093;115298;-78
2021/06/08 09:43:05;;;;;;;7.97;4.43;;;;;;;28.06;37.46;100600.89;124952;1093;103024;-82
2021/06/08 09:45:47;;;;;;;6.50;4.07;;;;;;;28.25;36.68;100593.61;124714;1093;103828;-81
2021/06/08 09:48:15;;;;;;;5.70;3.73;;;;;;;29.68;35.29;100594.77;125199;1092;114944;-81
2021/06/08 09:50:45;;;;;;;7.90;4.77;;;;;;;30.74;33.06;100590.89;125183;1093;103731;-80
2021/06/08 09:53:30;;;;;;;6.30;3.90;;;;;;;31.85;31.10;100597.02;125066;1092;115666;-81
2021/06/08 09:56:05;;;;;;;5.27;3.47;;;;;;;32.97;29.34;100593.31;125257;1093;103063;-80
2021/06/08 09:58:51;;;;;;;7.97;3.80;;;;;;;34.19;29.00;100597.08;124382;1095;115806;-83
2021/06/08 10:01:23;;;;;;;7.57;3.40;;;;;;;35.15;25.85;100594.27;125479;1095;103079;-80
2021/06/08 10:04:00;;;;;;;6.20;3.67;;;;;;;35.60;25.60;100578.30;124833;1093;103345;-81
2021/06/08 10:06:42;;;;;;;5.53;3.40;;;;;;;34.68;25.37;100579.03;125190;1096;103136;-83
2021/06/08 10:09:11;;;;;;;5.25;3.03;;;;;;;33.99;26.66;100583.85;125300;1096;102930;-78
2021/06/08 10:11:41;;;;;;;5.67;3.27;;;;;;;33.41;27.38;100591.81;124653;1096;114507;-83
2021/06/08 10:14:19;;;;;;;13.53;3.75;;;;;;;32.58;28.60;100595.06;126044;1096;103031;-80
2021/06/08 10:17:02;;;;;;;8.90;3.90;;;;;;;31.97;28.94;100590.09;124525;1095;116998;-85
2021/06/08 10:19:30;;;;;;;5.20;2.93;;;;;;;31.37;29.97;100580.34;124747;1096;103481;-83
2021/06/08 10:22:02;;;;;;;6.13;3.40;;;;;;;30.83;30.50;100578.00;124577;1095;103297;-80
2021/06/08 10:24:29;;;;;;;5.18;4.05;;;;;;;30.73;31.12;100583.66;124910;1096;114565;-80
2021/06/08 10:26:58;;;;;;;7.03;4.23;;;;;;;31.81;30.06;100577.21;125069;1095;103166;-81
2021/06/08 10:29:31;;;;;;;4.35;3.65;;;;;;;32.32;28.71;100584.33;124710;1096;115981;-78
2021/06/08 10:32:01;;;;;;;7.50;3.93;;;;;;;31.73;29.40;100579.98;124664;1096;103080;-82
2021/06/08 10:34:43;;;;;;;6.33;3.55;;;;;;;31.57;29.43;100579.98;125077;1096;115394;-79
2021/06/08 10:37:10;;;;;;;8.60;3.50;;;;;;;31.55;29.94;100571.91;124333;1096;103049;-80
2021/06/08 10:39:38;;;;;;;5.85;3.50;;;;;;;31.10;29.74;100578.80;124388;1095;103166;-80
2021/06/08 10:42:07;;;;;;;4.88;3.60;;;;;;;30.56;30.02;100570.91;124066;1095;114133;-76
2021/06/08 10:44:36;;;;;;;8.48;3.10;;;;;;;30.08;30.94;100576.00;124560;1093;103311;-79
2021/06/08 10:47:19;;;;;;;6.90;3.50;;;;;;;29.67;31.81;100582.06;124109;1093;114692;-79
2021/06/08 10:49:47;;;;;;;4.13;3.07;;;;;;;29.29;32.72;100579.55;127247;1092;103038;-82
2021/06/08 10:52:17;;;;;;;6.90;3.70;;;;;;;29.03;32.47;100576.73;124799;1092;102949;-79
2021/06/08 10:55:07;;;;;;;6.68;4.10;;;;;;;28.81;33.06;100569.81;127795;1092;114839;-79
2021/06/08 10:57:46;;;;;;;4.60;4.07;;;;;;;28.66;34.05;100566.75;127712;1093;101155;-78
2021/06/08 11:00:27;;;;;;;6.17;3.87;;;;;;;28.52;34.14;100562.60;125556;1093;114694;-80
2021/06/08 11:03:01;;;;;;;7.37;4.03;;;;;;;28.49;35.22;100561.03;124754;1093;102997;-79
2021/06/08 11:05:47;;;;;;;4.78;3.60;;;;;;;28.66;33.84;100559.38;124695;1093;114787;-81
2021/06/08 11:08:21;;;;;;;7.20;3.75;;;;;;;28.86;34.00;100562.84;124839;1093;103053;-81
2021/06/08 11:11:03;;;;;;;8.20;3.87;;;;;;;28.99;32.98;100556.09;124480;1093;115158;-85
2021/06/08 11:13:55;;;;;;;12.50;4.00;;;;;;;29.30;33.50;100550.25;125351;1092;103247;-81
2021/06/08 11:16:31;;;;;;;8.80;3.53;;;;;;;29.49;32.71;100551.92;125074;1092;102987;-79
2021/06/08 11:19:43;;;;;;;4.53;3.58;;;;;;;29.59;32.02;100547.20;125101;1093;115904;-78
2021/06/08 11:22:15;;;;;;;5.98;3.30;;;;;;;29.61;32.41;100544.30;124961;1093;103552;-79
2021/06/08 11:24:45;;;;;;;5.35;3.70;;;;;;;29.49;31.88;100546.44;124754;1093;116212;-83